createdAt,value
2018-06-12T00:00:01.471Z,10.40
2018-06-12T00:02:30.004Z,11.17
2018-06-12T00:04:58.505Z,11.00
2018-06-12T00:07:27.053Z,10.33
2018-06-12T00:09:55.614Z,10.17
2018-06-12T00:12:24.162Z,8.83
2018-06-12T00:14:52.349Z,10.27
2018-06-12T00:17:20.863Z,9.53
2018-06-12T00:19:49.439Z,9.73
2018-06-12T00:22:17.937Z,8.80
2018-06-12T00:24:46.534Z,9.90
2018-06-12T00:27:15.030Z,10.97
2018-06-12T00:29:43.566Z,11.00
2018-06-12T00:32:12.052Z,10.90
2018-06-12T00:34:40.590Z,11.00
2018-06-12T00:37:09.062Z,10.93
2018-06-12T00:39:37.577Z,9.00
2018-06-12T00:42:06.182Z,9.40
2018-06-12T00:44:34.720Z,9.23
2018-06-12T00:47:03.230Z,9.67
2018-06-12T00:49:31.757Z,9.20
2018-06-12T00:52:00.242Z,10.07
2018-06-12T00:54:28.777Z,9.80
2018-06-12T00:57:04.946Z,9.87
2018-06-12T00:59:33.698Z,10.60
2018-06-12T01:02:02.242Z,9.07
2018-06-12T01:04:30.802Z,8.60
2018-06-12T01:06:59.322Z,9.77
2018-06-12T01:09:27.826Z,9.80
2018-06-12T01:11:56.304Z,9.20
2018-06-12T01:14:24.788Z,9.93
2018-06-12T01:16:53.324Z,10.40
2018-06-12T01:19:21.776Z,11.87
2018-06-12T01:21:50.284Z,11.07
2018-06-12T01:24:18.786Z,12.70
2018-06-12T01:26:47.286Z,11.20
2018-06-12T01:29:16.970Z,12.70
2018-06-12T01:31:45.463Z,12.00
2018-06-12T01:34:13.921Z,11.73
2018-06-12T01:36:42.411Z,10.93
2018-06-12T01:39:10.880Z,12.00
2018-06-12T01:41:39.390Z,12.20
2018-06-12T01:44:07.854Z,9.63
2018-06-12T01:46:36.364Z,11.77
2018-06-12T01:49:04.906Z,10.33
2018-06-12T01:51:33.553Z,13.00
2018-06-12T01:54:02.023Z,11.50
2018-06-12T01:56:30.546Z,10.93
2018-06-12T01:58:58.998Z,12.10
2018-06-12T02:01:27.488Z,10.57
2018-06-12T02:03:55.954Z,11.53
2018-06-12T02:06:24.544Z,12.57
2018-06-12T02:09:11.991Z,11.37
2018-06-12T02:14:30.920Z,12.10
2018-06-12T02:16:59.395Z,12.00
2018-06-12T02:19:28.039Z,12.07
2018-06-12T02:21:56.561Z,12.67
2018-06-12T02:24:25.139Z,14.10
2018-06-12T02:26:53.617Z,12.80
2018-06-12T02:29:22.101Z,12.20
2018-06-12T02:31:50.580Z,11.40
2018-06-12T02:34:19.092Z,13.40
2018-06-12T02:36:47.576Z,12.23
2018-06-12T02:39:16.079Z,13.67
2018-06-12T02:41:44.605Z,11.60
2018-06-12T02:44:13.118Z,11.60
2018-06-12T02:46:41.291Z,12.13
2018-06-12T02:49:09.803Z,11.13
2018-06-12T02:51:38.273Z,10.07
2018-06-12T02:54:06.736Z,11.00
2018-06-12T02:56:35.644Z,11.43
2018-06-12T02:59:04.112Z,10.00
2018-06-12T03:01:32.596Z,11.03
2018-06-12T03:04:01.062Z,10.60
2018-06-12T03:06:42.352Z,11.10
2018-06-12T03:09:10.818Z,11.17
2018-06-12T03:11:39.378Z,10.93
2018-06-12T03:14:07.869Z,9.70
2018-06-12T03:16:36.431Z,10.03
2018-06-12T03:19:06.633Z,9.90
2018-06-12T03:21:35.919Z,11.27
2018-06-12T03:24:04.654Z,10.17
2018-06-12T03:26:33.150Z,10.87
2018-06-12T03:29:01.635Z,9.63
2018-06-12T03:31:30.113Z,9.40
2018-06-12T03:33:58.573Z,10.47
2018-06-12T03:36:27.089Z,8.60
2018-06-12T03:38:55.560Z,9.83
2018-06-12T03:41:24.103Z,8.90
2018-06-12T03:43:52.572Z,9.97
2018-06-12T03:46:21.037Z,9.23
2018-06-12T03:48:49.915Z,8.83
2018-06-12T03:51:18.385Z,10.23
2018-06-12T03:53:46.924Z,10.13
2018-06-12T03:56:15.392Z,8.87
2018-06-12T03:58:43.958Z,8.73
2018-06-12T04:01:12.403Z,6.70
2018-06-12T04:03:40.891Z,6.63
2018-06-12T04:06:09.354Z,8.17
2018-06-12T04:08:37.850Z,8.63
2018-06-12T04:11:06.314Z,9.03
2018-06-12T04:13:34.863Z,8.53
2018-06-12T04:16:03.336Z,8.80
2018-06-12T04:18:31.850Z,8.43
2018-06-12T04:21:00.374Z,8.30
2018-06-12T04:23:28.902Z,8.53
2018-06-12T04:25:57.406Z,7.63
2018-06-12T04:28:26.247Z,8.10
2018-06-12T04:30:54.780Z,7.40
2018-06-12T04:33:23.228Z,7.93
2018-06-12T04:35:52.724Z,6.73
2018-06-12T04:38:21.318Z,7.60
2018-06-12T04:40:50.009Z,7.33
2018-06-12T04:43:18.521Z,8.30
2018-06-12T04:45:47.054Z,6.67
2018-06-12T04:48:15.587Z,8.57
2018-06-12T04:50:44.233Z,7.20
2018-06-12T04:53:12.750Z,7.20
2018-06-12T04:55:42.018Z,7.90
2018-06-12T04:58:10.499Z,7.80
2018-06-12T05:00:39.005Z,7.50
2018-06-12T05:03:07.495Z,8.97
2018-06-12T05:05:36.045Z,5.90
2018-06-12T05:08:04.904Z,8.23
2018-06-12T05:10:33.455Z,6.97
2018-06-12T05:13:03.332Z,8.03
2018-06-12T05:15:32.792Z,6.83
2018-06-12T05:18:01.349Z,7.90
2018-06-12T05:20:29.853Z,8.23
2018-06-12T05:23:00.124Z,7.37
2018-06-12T05:25:28.687Z,7.83
2018-06-12T05:27:57.163Z,7.30
2018-06-12T05:30:28.838Z,7.43
2018-06-12T05:32:57.381Z,6.43
2018-06-12T05:35:26.031Z,6.53
2018-06-12T05:37:54.562Z,6.53
2018-06-12T05:40:23.050Z,6.70
2018-06-12T05:42:51.547Z,6.03
2018-06-12T05:45:20.069Z,8.27
2018-06-12T05:47:48.553Z,7.20
2018-06-12T05:50:17.027Z,7.50
2018-06-12T05:52:45.552Z,6.50
2018-06-12T05:55:14.087Z,7.00
2018-06-12T05:57:42.557Z,7.33
2018-06-12T06:00:11.090Z,7.70
2018-06-12T06:02:39.583Z,7.53
2018-06-12T06:05:08.090Z,7.90
2018-06-12T06:07:36.555Z,7.77
2018-06-12T06:10:05.701Z,8.33
2018-06-12T06:12:34.178Z,7.03
2018-06-12T06:15:02.667Z,7.90
2018-06-12T06:17:31.158Z,7.33
2018-06-12T06:19:59.673Z,8.10
2018-06-12T06:22:28.177Z,7.93
2018-06-12T06:24:56.862Z,7.77
2018-06-12T06:27:25.346Z,7.77
2018-06-12T06:29:53.923Z,8.23
2018-06-12T06:32:22.369Z,7.73
2018-06-12T06:34:50.960Z,7.93
2018-06-12T06:37:19.374Z,8.00
2018-06-12T06:39:47.892Z,5.17
2018-06-12T06:42:16.351Z,7.43
2018-06-12T06:44:44.924Z,7.47
2018-06-12T06:47:13.403Z,8.30
2018-06-12T06:49:42.038Z,8.50
2018-06-12T06:52:12.147Z,8.93
2018-06-12T06:54:42.127Z,8.33
2018-06-12T06:57:10.659Z,8.57
2018-06-12T06:59:40.019Z,8.50
2018-06-12T07:02:08.510Z,7.47
2018-06-12T07:04:37.023Z,8.27
2018-06-12T07:07:05.564Z,8.00
2018-06-12T07:09:34.016Z,7.67
2018-06-12T07:12:02.213Z,9.10
2018-06-12T07:14:30.691Z,9.20
2018-06-12T07:17:00.585Z,10.63
2018-06-12T07:19:29.126Z,8.77
2018-06-12T07:21:57.625Z,9.80
2018-06-12T07:24:26.154Z,8.00
2018-06-12T07:26:54.657Z,9.03
2018-06-12T07:29:23.161Z,8.27
2018-06-12T07:31:51.761Z,8.87
2018-06-12T07:34:20.241Z,8.90
2018-06-12T07:36:48.704Z,7.03
2018-06-12T07:39:17.245Z,10.30
2018-06-12T07:41:45.750Z,10.13
2018-06-12T07:44:14.355Z,10.07
2018-06-12T07:46:42.923Z,9.23
2018-06-12T07:49:11.398Z,9.67
2018-06-12T07:51:39.932Z,11.00
2018-06-12T07:54:08.516Z,9.47
2018-06-12T07:56:37.046Z,10.43
2018-06-12T07:59:05.649Z,10.17
2018-06-12T08:01:33.855Z,10.07
2018-06-12T08:04:02.519Z,10.10
2018-06-12T08:06:31.980Z,9.10
2018-06-12T08:09:00.501Z,10.80
2018-06-12T08:11:29.001Z,10.70
2018-06-12T08:13:57.519Z,8.67
2018-06-12T08:16:26.045Z,11.13
2018-06-12T08:18:55.249Z,10.73
2018-06-12T08:21:23.892Z,10.70
2018-06-12T08:23:52.422Z,10.57
2018-06-12T08:26:21.020Z,10.90
2018-06-12T08:28:49.494Z,10.50
2018-06-12T08:31:19.225Z,10.47
2018-06-12T08:33:47.701Z,10.43
2018-06-12T08:36:16.218Z,10.30
2018-06-12T08:38:44.690Z,11.17
2018-06-12T08:41:13.211Z,11.57
2018-06-12T08:43:41.738Z,12.67
2018-06-12T08:46:10.969Z,10.93
2018-06-12T08:48:41.123Z,11.53
2018-06-12T08:51:11.860Z,11.03
2018-06-12T08:53:45.865Z,10.67
2018-06-12T08:56:20.039Z,11.37
2018-06-12T08:58:48.559Z,11.53
2018-06-12T09:01:17.199Z,11.67
2018-06-12T09:03:45.691Z,10.80
2018-06-12T09:06:14.332Z,11.30
2018-06-12T09:08:43.689Z,11.30
2018-06-12T09:11:12.230Z,12.77
2018-06-12T09:13:40.778Z,12.20
2018-06-12T09:16:09.289Z,11.70
2018-06-12T09:18:37.802Z,11.50
2018-06-12T09:21:06.368Z,11.40
2018-06-12T09:23:34.821Z,11.87
2018-06-12T09:26:03.509Z,11.50
2018-06-12T09:28:32.053Z,11.23
2018-06-12T09:31:00.701Z,12.30
2018-06-12T09:33:29.246Z,12.87
2018-06-12T09:36:03.126Z,11.77
2018-06-12T09:38:31.638Z,12.57
2018-06-12T09:41:00.157Z,12.00
2018-06-12T09:43:28.738Z,11.77
2018-06-12T09:45:57.270Z,13.60
2018-06-12T09:48:25.783Z,11.83
2018-06-12T09:50:54.375Z,12.90
2018-06-12T09:53:22.976Z,13.87
2018-06-12T09:55:51.488Z,13.40
2018-06-12T09:58:19.999Z,12.00
2018-06-12T10:00:55.400Z,13.07
2018-06-12T10:03:23.888Z,12.73
2018-06-12T10:05:52.451Z,14.67
2018-06-12T10:08:20.909Z,13.20
2018-06-12T10:10:49.443Z,12.77
2018-06-12T10:13:18.079Z,14.07
2018-06-12T10:15:46.628Z,13.60
2018-06-12T10:18:15.205Z,12.87
2018-06-12T10:20:43.974Z,13.90
2018-06-12T10:23:12.558Z,12.17
2018-06-12T10:25:41.139Z,12.70
2018-06-12T10:28:09.942Z,13.57
2018-06-12T10:30:38.563Z,12.73
2018-06-12T10:33:07.328Z,13.07
2018-06-12T10:35:35.846Z,12.47
2018-06-12T10:38:04.340Z,13.57
2018-06-12T10:40:32.931Z,14.03
2018-06-12T10:43:01.468Z,12.23
2018-06-12T10:45:33.051Z,12.60
2018-06-12T10:48:01.598Z,12.80
2018-06-12T10:50:43.082Z,12.40
2018-06-12T10:53:11.565Z,13.33
2018-06-12T10:55:43.866Z,13.40
2018-06-12T10:58:15.128Z,12.80
2018-06-12T11:00:44.527Z,12.47
2018-06-12T11:03:13.086Z,13.47
2018-06-12T11:05:41.715Z,12.53
2018-06-12T11:08:10.341Z,13.40
2018-06-12T11:10:38.935Z,11.80
2018-06-12T11:13:10.100Z,11.70
2018-06-12T11:15:38.735Z,12.57
2018-06-12T11:18:08.978Z,9.80
2018-06-12T11:20:37.762Z,10.20
2018-06-12T11:23:07.246Z,9.10
2018-06-12T11:25:35.980Z,10.20
2018-06-12T11:28:04.713Z,9.50
2018-06-12T11:30:34.185Z,8.20
2018-06-12T11:33:03.139Z,8.53
2018-06-12T11:35:31.614Z,8.50
2018-06-12T11:38:00.274Z,8.17
2018-06-12T11:40:28.783Z,7.20
2018-06-12T11:42:57.343Z,8.17
2018-06-12T11:45:25.826Z,6.50
2018-06-12T11:47:54.365Z,6.63
2018-06-12T11:50:23.472Z,6.67
2018-06-12T11:52:52.051Z,7.87
2018-06-12T11:55:23.954Z,5.10
2018-06-12T11:57:53.465Z,6.40
2018-06-12T12:00:21.986Z,6.20
2018-06-12T12:02:50.526Z,6.10
2018-06-12T12:05:19.239Z,5.50
2018-06-12T12:07:47.692Z,5.43
2018-06-12T12:10:16.194Z,6.53
2018-06-12T12:12:44.656Z,5.63
2018-06-12T12:15:13.179Z,7.10
2018-06-12T12:17:41.690Z,8.73
2018-06-12T12:20:10.180Z,7.30
2018-06-12T12:22:38.822Z,6.57
2018-06-12T12:25:07.368Z,6.90
2018-06-12T12:27:35.855Z,7.70
2018-06-12T12:30:05.028Z,5.97
2018-06-12T12:32:33.494Z,5.67
2018-06-12T12:35:01.982Z,6.60
2018-06-12T12:37:30.473Z,6.90
2018-06-12T12:39:58.953Z,6.80
2018-06-12T12:42:27.568Z,6.80
2018-06-12T12:44:56.130Z,8.80
2018-06-12T12:47:24.622Z,7.17
2018-06-12T12:49:53.183Z,5.63
2018-06-12T12:52:21.727Z,6.13
2018-06-12T12:54:50.232Z,5.87
2018-06-12T12:57:18.722Z,6.60
2018-06-12T12:59:47.292Z,6.70
2018-06-12T13:02:15.764Z,6.93
2018-06-12T13:04:44.309Z,6.67
2018-06-12T13:07:12.905Z,7.00
2018-06-12T13:09:41.407Z,6.30
2018-06-12T13:12:09.982Z,9.00
2018-06-12T13:14:39.474Z,9.77
2018-06-12T13:17:07.994Z,8.73
2018-06-12T13:19:36.545Z,9.80
2018-06-12T13:22:05.139Z,8.23
2018-06-12T13:24:33.679Z,8.27
2018-06-12T13:27:02.216Z,7.80
2018-06-12T13:29:30.735Z,7.80
2018-06-12T13:31:59.202Z,7.87
2018-06-12T13:34:27.733Z,7.60
2018-06-12T13:36:56.199Z,7.57
2018-06-12T13:39:24.704Z,7.80
2018-06-12T13:41:53.183Z,8.03
2018-06-12T13:44:21.710Z,7.80
2018-06-12T13:46:50.182Z,7.27
2018-06-12T13:49:18.751Z,6.67
2018-06-12T13:51:47.209Z,6.10
2018-06-12T13:54:15.788Z,6.13
2018-06-12T13:56:44.370Z,6.80
2018-06-12T13:59:12.901Z,8.13
2018-06-12T14:01:41.565Z,7.17
2018-06-12T14:04:10.087Z,7.33
2018-06-12T14:06:38.562Z,8.00
2018-06-12T14:09:08.624Z,8.53
2018-06-12T14:11:37.099Z,7.50
2018-06-12T14:14:05.620Z,7.33
2018-06-12T14:16:34.193Z,7.50
2018-06-12T14:19:02.707Z,5.90
2018-06-12T14:21:31.289Z,6.33
2018-06-12T14:23:59.819Z,5.57
2018-06-12T14:26:28.360Z,5.13
2018-06-12T14:28:56.837Z,6.60
2018-06-12T14:31:25.359Z,5.77
2018-06-12T14:33:54.191Z,6.43
2018-06-12T14:36:22.766Z,5.90
2018-06-12T14:38:51.268Z,5.57
2018-06-12T14:41:19.755Z,5.90
2018-06-12T14:43:48.246Z,6.07
2018-06-12T14:46:18.730Z,5.43
2018-06-12T14:48:47.244Z,4.70
2018-06-12T14:51:15.699Z,5.20
2018-06-12T14:53:44.460Z,5.23
2018-06-12T14:56:12.954Z,4.40
2018-06-12T14:58:41.498Z,4.70
2018-06-12T15:01:10.039Z,5.20
2018-06-12T15:03:38.559Z,3.73
2018-06-12T15:06:07.091Z,3.20
2018-06-12T15:08:35.610Z,3.77
2018-06-12T15:11:04.126Z,4.00
2018-06-12T15:13:32.652Z,4.17
2018-06-12T15:16:01.194Z,3.97
2018-06-12T15:18:29.801Z,3.70
2018-06-12T15:20:58.306Z,5.30
2018-06-12T15:23:27.067Z,4.10
2018-06-12T15:25:55.729Z,4.00
2018-06-12T15:28:24.332Z,4.50
2018-06-12T15:30:52.929Z,3.03
2018-06-12T15:33:21.464Z,4.00
2018-06-12T15:35:49.962Z,4.70
2018-06-12T15:38:18.148Z,3.40
2018-06-12T15:40:46.656Z,3.97
2018-06-12T15:43:15.174Z,4.20
2018-06-12T15:45:43.618Z,3.70
2018-06-12T15:48:12.379Z,3.33
2018-06-12T15:50:40.939Z,3.37
2018-06-12T15:53:09.503Z,3.67
2018-06-12T15:55:38.042Z,3.47
2018-06-12T15:58:06.228Z,3.40
2018-06-12T16:00:34.889Z,2.80
2018-06-12T16:03:04.184Z,3.60
2018-06-12T16:05:32.903Z,4.00
2018-06-12T16:08:03.074Z,3.50
2018-06-12T16:10:34.799Z,3.43
2018-06-12T16:13:04.493Z,4.00
2018-06-12T16:15:34.101Z,3.97
2018-06-12T16:18:03.436Z,3.00
2018-06-12T16:20:32.049Z,3.63
2018-06-12T16:23:01.365Z,3.47
2018-06-12T16:25:29.979Z,4.20
2018-06-12T16:27:58.537Z,3.63
2018-06-12T16:30:27.519Z,3.40
2018-06-12T16:32:56.085Z,3.73
2018-06-12T16:35:24.696Z,3.73
2018-06-12T16:37:53.309Z,3.77
2018-06-12T16:40:21.942Z,4.40
2018-06-12T16:42:50.470Z,3.33
2018-06-12T16:45:18.989Z,3.27
2018-06-12T16:47:47.563Z,4.10
2018-06-12T16:50:19.780Z,3.57
2018-06-12T16:52:49.698Z,4.00
2018-06-12T16:55:18.187Z,3.27
2018-06-12T16:57:46.712Z,5.40
2018-06-12T17:00:15.257Z,3.03
2018-06-12T17:02:43.783Z,3.63
2018-06-12T17:05:12.408Z,3.33
2018-06-12T17:07:40.952Z,3.67
2018-06-12T17:10:09.482Z,4.57
2018-06-12T17:12:37.993Z,3.73
2018-06-12T17:15:06.483Z,3.93
2018-06-12T17:17:35.080Z,4.30
2018-06-12T17:20:03.636Z,3.23
2018-06-12T17:22:32.223Z,4.10
2018-06-12T17:25:00.720Z,3.60
2018-06-12T17:27:30.145Z,3.63
2018-06-12T17:29:58.645Z,4.00
2018-06-12T17:32:27.171Z,4.00
2018-06-12T17:34:55.715Z,3.83
2018-06-12T17:37:24.243Z,4.37
2018-06-12T17:39:52.752Z,3.50
2018-06-12T17:44:57.111Z,4.90
2018-06-12T17:47:25.688Z,3.60
2018-06-12T17:49:54.810Z,4.00
2018-06-12T17:52:23.584Z,3.50
2018-06-12T17:54:52.102Z,4.00
2018-06-12T17:57:20.668Z,4.60
2018-06-12T17:59:49.131Z,3.93
2018-06-12T18:02:17.739Z,5.23
2018-06-12T18:04:46.395Z,3.70
2018-06-12T18:07:14.989Z,4.47
2018-06-12T18:09:43.510Z,4.50
2018-06-12T18:12:12.020Z,5.33
2018-06-12T18:14:40.570Z,4.57
2018-06-12T18:17:09.192Z,3.77
2018-06-12T18:19:39.243Z,4.17
2018-06-12T18:22:07.882Z,4.53
2018-06-12T18:24:36.533Z,4.27
2018-06-12T18:27:05.044Z,4.00
2018-06-12T18:29:33.576Z,5.00
2018-06-12T18:32:03.289Z,4.50
2018-06-12T18:34:31.771Z,4.40
2018-06-12T18:37:00.328Z,4.50
2018-06-12T18:39:28.821Z,4.17
2018-06-12T18:41:57.349Z,4.67
2018-06-12T18:44:25.846Z,3.90
2018-06-12T18:46:54.505Z,3.60
2018-06-12T18:49:22.991Z,4.27
2018-06-12T18:51:51.491Z,3.90
2018-06-12T18:54:20.028Z,3.90
2018-06-12T18:56:48.479Z,3.97
2018-06-12T18:59:17.023Z,3.37
2018-06-12T19:01:45.510Z,3.90
2018-06-12T19:04:14.191Z,3.97
2018-06-12T19:06:43.891Z,3.40
2018-06-12T19:09:12.374Z,3.90
2018-06-12T19:11:40.862Z,4.83
2018-06-12T19:14:10.342Z,3.60
2018-06-12T19:16:38.846Z,4.97
2018-06-12T19:19:07.362Z,3.53
2018-06-12T19:21:35.949Z,7.13
2018-06-12T19:24:04.162Z,6.47
2018-06-12T19:26:33.175Z,6.77
2018-06-12T19:29:01.656Z,5.53
2018-06-12T19:31:30.187Z,6.67
2018-06-12T19:33:58.664Z,6.70
2018-06-12T19:36:27.188Z,4.77
2018-06-12T19:38:55.803Z,5.90
2018-06-12T19:41:24.445Z,4.23
2018-06-12T19:43:52.928Z,5.73
2018-06-12T19:46:21.475Z,4.40
2018-06-12T19:48:50.100Z,4.77
2018-06-12T19:51:18.806Z,4.70
2018-06-12T19:53:47.346Z,4.53
2018-06-12T19:56:15.824Z,4.67
2018-06-12T19:58:44.343Z,5.00
2018-06-12T20:01:13.014Z,4.80
2018-06-12T20:03:41.535Z,4.73
2018-06-12T20:06:10.246Z,5.03
2018-06-12T20:08:38.758Z,5.27
2018-06-12T20:11:07.252Z,4.80
2018-06-12T20:13:36.074Z,5.10
2018-06-12T20:16:04.658Z,5.43
2018-06-12T20:18:33.211Z,5.13
2018-06-12T20:21:01.755Z,5.00
2018-06-12T20:23:30.255Z,5.40
2018-06-12T20:25:58.806Z,6.07
2018-06-12T20:28:27.337Z,4.60
2018-06-12T20:30:55.849Z,5.10
2018-06-12T20:33:24.315Z,4.53
2018-06-12T20:35:52.843Z,6.10
2018-06-12T20:38:21.393Z,4.70
2018-06-12T20:40:49.917Z,5.37
2018-06-12T20:43:18.400Z,6.00
2018-06-12T20:45:47.151Z,5.00
2018-06-12T20:48:15.642Z,5.07
2018-06-12T20:50:44.231Z,4.93
2018-06-12T20:53:12.753Z,4.43
2018-06-12T20:55:41.354Z,4.33
2018-06-12T20:58:09.824Z,4.40
2018-06-12T21:00:38.398Z,4.90
2018-06-12T21:03:06.952Z,5.13
2018-06-12T21:05:35.614Z,4.63
2018-06-12T21:08:04.119Z,5.07
2018-06-12T21:10:32.679Z,5.27
2018-06-12T21:13:01.358Z,4.50
2018-06-12T21:15:29.874Z,4.80
2018-06-12T21:17:58.440Z,4.83
2018-06-12T21:20:26.970Z,5.90
2018-06-12T21:22:55.639Z,6.50
2018-06-12T21:25:24.220Z,4.80
2018-06-12T21:27:52.774Z,5.97
2018-06-12T21:30:21.058Z,4.43
2018-06-12T21:32:49.597Z,4.77
2018-06-12T21:35:19.037Z,4.90
2018-06-12T21:37:47.255Z,4.43
2018-06-12T21:40:15.909Z,5.20
2018-06-12T21:42:46.167Z,4.20
2018-06-12T21:45:14.726Z,5.03
2018-06-12T21:47:43.266Z,4.30
2018-06-12T21:50:11.785Z,5.00
2018-06-12T21:52:40.306Z,5.23
2018-06-12T21:55:08.893Z,4.10
2018-06-12T21:57:37.407Z,4.37
2018-06-12T22:00:07.402Z,4.30
2018-06-12T22:02:36.065Z,3.60
2018-06-12T22:05:05.634Z,4.53
2018-06-12T22:07:34.182Z,39.37
2018-06-12T22:10:02.932Z,4.27
2018-06-12T22:12:34.812Z,3.70
2018-06-12T22:15:03.454Z,4.13
2018-06-12T22:17:31.980Z,2.60
2018-06-12T22:20:00.482Z,5.77
2018-06-12T22:22:29.833Z,5.17
2018-06-12T22:25:03.216Z,4.13
2018-06-12T22:27:32.855Z,4.30
2018-06-12T22:30:01.417Z,4.33
2018-06-12T22:32:29.893Z,4.67
2018-06-12T22:35:03.841Z,4.63
2018-06-12T22:37:32.307Z,4.63
2018-06-12T22:40:00.952Z,6.20
2018-06-12T22:42:29.501Z,5.07
2018-06-12T22:44:59.048Z,5.47
2018-06-12T22:47:27.515Z,5.27
2018-06-12T22:49:56.048Z,5.20
2018-06-12T22:52:24.566Z,5.90
2018-06-12T22:54:54.163Z,5.70
2018-06-12T22:57:22.839Z,5.80
2018-06-12T22:59:51.392Z,5.90
2018-06-12T23:02:19.998Z,6.00
2018-06-12T23:04:48.461Z,5.27
2018-06-12T23:07:17.725Z,5.57
2018-06-12T23:09:46.385Z,5.87
2018-06-12T23:12:14.882Z,6.27
2018-06-12T23:14:44.311Z,6.17
2018-06-12T23:17:12.801Z,5.40
2018-06-12T23:19:52.470Z,5.77
2018-06-12T23:22:21.149Z,5.70
2018-06-12T23:24:50.197Z,5.27
2018-06-12T23:27:18.729Z,7.70
2018-06-12T23:29:47.426Z,5.20
2018-06-12T23:32:18.483Z,6.23
2018-06-12T23:34:47.260Z,5.50
2018-06-12T23:37:20.816Z,5.33
2018-06-12T23:39:49.315Z,5.63
2018-06-12T23:44:56.022Z,6.10
2018-06-12T23:47:24.507Z,4.70
2018-06-12T23:49:55.230Z,5.30
2018-06-12T23:52:26.107Z,5.43
2018-06-12T23:54:54.606Z,5.53
2018-06-12T23:57:25.096Z,5.70
2018-06-12T23:59:57.328Z,5.60
